• Join FlightAware (Why Join?)
  • Login
  • US Flag 
03:48AM EDT


 

Airport Tracker/Info


-or-


 

Live Flight TrackerFlight Track Log ✈ N9285G ✈ 10-Apr-2014 ✈ KPIE - KPIE

Flight Track Log - Related Links

Times and Time Zones

All times are in EDT time to prevent confusion due to time zone crossing. See the N9285G flight status page for this flight to view local times or setup timezone preferences in your user account.

Time Position Orientation Groundspeed Altitude Reporting Facility
EDT Latitude Longitude Course Direction KTS MPH feet Rate Location/Type
01:54PM 27.9333 -82.7000 319° Northwest 85 98 700  Level Tampa TRACON
01:55PM 27.9500 -82.7167 319° Northwest 93 107 1,400 660 Climbing Tampa TRACON
01:56PM 27.9667 -82.7333 319° Northwest 98 113 2,200 660 Climbing Tampa TRACON
01:57PM 27.9667 -82.7667 270° West 96 110 2,800 540 Climbing Tampa TRACON
01:57PM 27.9667 -82.8000 270° West 94 108 3,200 600 Climbing Tampa TRACON
01:58PM 27.9500 -82.8167 221° Southwest 95 109 3,900 420 Climbing Tampa TRACON
02:00PM 27.9333 -82.8167 180° South 95 109 4,200 60 Climbing Tampa TRACON
02:01PM 27.9000 -82.8333 204° Southwest 113 130 4,100 -120 Descending Tampa TRACON
02:02PM 27.9000 -82.8667 270° West 110 127 4,000  Descending Tampa TRACON
02:03PM 27.9167 -82.8833 319° Northwest 92 106 4,100  Climbing Tampa TRACON
02:04PM 27.9167 -82.8667 90° East 75 86 4,100  Level Tampa TRACON
02:05PM 27.9167 -82.8333 90° East 79 91 4,200 -60 Climbing Tampa TRACON
02:06PM 27.9000 -82.8667 241° Southwest 111 128 4,000 -60 Descending Tampa TRACON
02:07PM 27.9167 -82.9000 300° West 105 121 4,100 60 Climbing Tampa TRACON
02:07PM 27.9139 -82.9039 231° Southwest 102 117 4,100 60 Level Miami Center
02:08PM 27.9256 -82.8847 55° Northeast 102 117 4,200  Climbing Miami Center
02:09PM 27.9153 -82.8636 119° Southeast 86 99 4,200 -60 Level Miami Center
02:12PM 27.9000 -82.8833 229° Southwest 117 135 4,000 -120 Descending Tampa TRACON
02:13PM 27.9167 -82.9000 319° Northwest 99 114 4,000  Level Tampa TRACON
02:13PM 27.9181 -82.8872 83° East 102 117 4,100  Climbing Miami Center
02:15PM 27.9167 -82.8500 92° East 77 89 4,100  Level Tampa TRACON
02:16PM 27.9000 -82.8500 180° South 88 101 4,100 -60 Level Tampa TRACON
02:17PM 27.9019 -82.8775 275° West 107 123 4,000  Descending Miami Center
02:19PM 27.9225 -82.8606 36° Northeast 83 96 4,100 -120 Climbing Miami Center
02:20PM 27.9453 -82.8464 29° Northeast 81 93 3,700 -600 Descending Miami Center
02:20PM 27.9667 -82.8333 28° Northeast 83 96 3,000 -480 Descending Tampa TRACON
02:24PM 27.9667 -82.7500 90° East 86 99 1,900 -420 Descending Tampa TRACON
02:25PM 27.9833 -82.7167 60° Northeast 87 100 1,500 -420 Descending Tampa TRACON
02:26PM 27.9833 -82.7000 90° East 82 94 1,100 -300 Descending Tampa TRACON
02:27PM 27.9667 -82.6833 139° Southeast 76 87 900 -240 Descending Tampa TRACON
02:28PM 27.9500 -82.7000 221° Southwest 84 97 600 -300 Descending Tampa TRACON
02:31PM 27.9100 -82.6875 90° East  Level Estimated